sensor_id;sensor_type;location;lat;lon;timestamp;P1;durP1;ratioP1;P2;durP2;ratioP2
10731;SDS011;74907;42.812;23.216;2024-03-02T00:00:30;27.53;;;20.57;;
10731;SDS011;74907;42.812;23.216;2024-03-02T00:02:57;29.50;;;20.33;;
10731;SDS011;74907;42.812;23.216;2024-03-02T00:05:24;29.13;;;20.93;;
10731;SDS011;74907;42.812;23.216;2024-03-02T00:07:52;30.37;;;20.50;;
10731;SDS011;74907;42.812;23.216;2024-03-02T00:10:24;28.23;;;20.87;;
10731;SDS011;74907;42.812;23.216;2024-03-02T00:12:54;29.40;;;21.17;;
10731;SDS011;74907;42.812;23.216;2024-03-02T00:15:34;29.10;;;21.03;;
10731;SDS011;74907;42.812;23.216;2024-03-02T00:18:09;29.13;;;20.80;;
10731;SDS011;74907;42.812;23.216;2024-03-02T00:20:40;27.57;;;20.80;;
10731;SDS011;74907;42.812;23.216;2024-03-02T00:23:07;26.03;;;19.37;;
10731;SDS011;74907;42.812;23.216;2024-03-02T00:25:40;27.87;;;20.20;;
10731;SDS011;74907;42.812;23.216;2024-03-02T00:28:16;29.57;;;20.37;;
10731;SDS011;74907;42.812;23.216;2024-03-02T00:33:28;29.37;;;19.37;;
10731;SDS011;74907;42.812;23.216;2024-03-02T00:35:57;27.90;;;19.43;;
10731;SDS011;74907;42.812;23.216;2024-03-02T00:38:25;27.73;;;19.97;;
10731;SDS011;74907;42.812;23.216;2024-03-02T00:40:54;28.33;;;21.03;;
10731;SDS011;74907;42.812;23.216;2024-03-02T00:46:12;27.97;;;19.77;;
10731;SDS011;74907;42.812;23.216;2024-03-02T00:48:39;30.43;;;20.07;;
10731;SDS011;74907;42.812;23.216;2024-03-02T00:51:12;31.67;;;21.03;;
10731;SDS011;74907;42.812;23.216;2024-03-02T00:53:39;27.63;;;19.10;;
10731;SDS011;74907;42.812;23.216;2024-03-02T00:56:07;30.27;;;21.37;;
10731;SDS011;74907;42.812;23.216;2024-03-02T00:58:36;29.73;;;19.97;;
10731;SDS011;74907;42.812;23.216;2024-03-02T01:01:03;29.77;;;21.87;;
10731;SDS011;74907;42.812;23.216;2024-03-02T01:03:30;28.17;;;20.23;;
10731;SDS011;74907;42.812;23.216;2024-03-02T01:05:57;32.27;;;21.33;;
10731;SDS011;74907;42.812;23.216;2024-03-02T01:08:24;31.23;;;20.40;;
10731;SDS011;74907;42.812;23.216;2024-03-02T01:10:51;27.63;;;19.73;;
10731;SDS011;74907;42.812;23.216;2024-03-02T01:13:19;27.80;;;19.20;;
10731;SDS011;74907;42.812;23.216;2024-03-02T01:15:47;29.67;;;20.47;;
10731;SDS011;74907;42.812;23.216;2024-03-02T01:18:14;31.30;;;20.90;;
10731;SDS011;74907;42.812;23.216;2024-03-02T01:20:41;29.43;;;20.73;;
10731;SDS011;74907;42.812;23.216;2024-03-02T01:23:07;30.20;;;20.80;;
10731;SDS011;74907;42.812;23.216;2024-03-02T01:25:34;29.77;;;21.10;;
10731;SDS011;74907;42.812;23.216;2024-03-02T01:28:02;30.00;;;21.07;;
10731;SDS011;74907;42.812;23.216;2024-03-02T01:30:30;28.97;;;20.03;;
10731;SDS011;74907;42.812;23.216;2024-03-02T01:32:57;29.73;;;19.90;;
10731;SDS011;74907;42.812;23.216;2024-03-02T01:35:24;31.23;;;20.57;;
10731;SDS011;74907;42.812;23.216;2024-03-02T01:37:51;28.70;;;19.73;;
10731;SDS011;74907;42.812;23.216;2024-03-02T01:40:18;28.43;;;19.97;;
10731;SDS011;74907;42.812;23.216;2024-03-02T01:42:45;30.67;;;20.07;;
10731;SDS011;74907;42.812;23.216;2024-03-02T01:45:12;28.73;;;20.97;;
10731;SDS011;74907;42.812;23.216;2024-03-02T01:47:40;28.10;;;20.77;;
10731;SDS011;74907;42.812;23.216;2024-03-02T01:50:07;30.07;;;21.00;;
10731;SDS011;74907;42.812;23.216;2024-03-02T01:52:36;27.30;;;20.60;;
10731;SDS011;74907;42.812;23.216;2024-03-02T01:55:03;29.93;;;21.53;;
10731;SDS011;74907;42.812;23.216;2024-03-02T01:57:31;29.13;;;20.23;;
10731;SDS011;74907;42.812;23.216;2024-03-02T01:59:57;28.07;;;20.10;;
10731;SDS011;74907;42.812;23.216;2024-03-02T02:02:24;25.40;;;19.50;;
10731;SDS011;74907;42.812;23.216;2024-03-02T02:04:52;28.10;;;20.50;;
10731;SDS011;74907;42.812;23.216;2024-03-02T02:07:19;29.83;;;20.57;;
10731;SDS011;74907;42.812;23.216;2024-03-02T02:09:46;30.00;;;20.40;;
10731;SDS011;74907;42.812;23.216;2024-03-02T02:12:13;30.67;;;19.87;;
10731;SDS011;74907;42.812;23.216;2024-03-02T02:14:46;31.73;;;21.10;;
10731;SDS011;74907;42.812;23.216;2024-03-02T02:17:13;27.83;;;19.83;;
10731;SDS011;74907;42.812;23.216;2024-03-02T02:19:40;26.93;;;19.93;;
10731;SDS011;74907;42.812;23.216;2024-03-02T02:22:09;29.73;;;20.07;;
10731;SDS011;74907;42.812;23.216;2024-03-02T02:24:35;28.40;;;20.67;;
10731;SDS011;74907;42.812;23.216;2024-03-02T02:27:02;29.10;;;20.83;;
10731;SDS011;74907;42.812;23.216;2024-03-02T02:29:29;27.47;;;19.90;;
10731;SDS011;74907;42.812;23.216;2024-03-02T02:31:55;28.43;;;20.53;;
10731;SDS011;74907;42.812;23.216;2024-03-02T02:34:22;26.97;;;19.87;;
10731;SDS011;74907;42.812;23.216;2024-03-02T02:36:49;25.30;;;19.67;;
10731;SDS011;74907;42.812;23.216;2024-03-02T02:39:17;30.83;;;20.97;;
10731;SDS011;74907;42.812;23.216;2024-03-02T02:41:47;26.80;;;20.13;;
10731;SDS011;74907;42.812;23.216;2024-03-02T02:44:14;28.03;;;19.10;;
10731;SDS011;74907;42.812;23.216;2024-03-02T02:46:40;29.40;;;19.90;;
10731;SDS011;74907;42.812;23.216;2024-03-02T02:49:07;29.60;;;19.93;;
10731;SDS011;74907;42.812;23.216;2024-03-02T02:51:34;27.57;;;20.33;;
10731;SDS011;74907;42.812;23.216;2024-03-02T02:54:01;27.93;;;20.53;;
10731;SDS011;74907;42.812;23.216;2024-03-02T02:56:29;28.97;;;19.00;;
10731;SDS011;74907;42.812;23.216;2024-03-02T02:58:56;27.37;;;19.57;;
10731;SDS011;74907;42.812;23.216;2024-03-02T03:01:23;27.10;;;19.53;;
10731;SDS011;74907;42.812;23.216;2024-03-02T03:03:50;29.13;;;20.87;;
10731;SDS011;74907;42.812;23.216;2024-03-02T03:06:17;28.87;;;19.70;;
10731;SDS011;74907;42.812;23.216;2024-03-02T03:08:44;26.03;;;20.03;;
10731;SDS011;74907;42.812;23.216;2024-03-02T03:11:10;28.03;;;21.17;;
10731;SDS011;74907;42.812;23.216;2024-03-02T03:13:38;30.37;;;20.73;;
10731;SDS011;74907;42.812;23.216;2024-03-02T03:16:05;29.77;;;21.83;;
10731;SDS011;74907;42.812;23.216;2024-03-02T03:18:32;32.23;;;21.73;;
10731;SDS011;74907;42.812;23.216;2024-03-02T03:20:59;30.03;;;20.60;;
10731;SDS011;74907;42.812;23.216;2024-03-02T03:23:26;32.67;;;20.17;;
10731;SDS011;74907;42.812;23.216;2024-03-02T03:25:52;26.53;;;19.53;;
10731;SDS011;74907;42.812;23.216;2024-03-02T03:28:19;28.33;;;20.73;;
10731;SDS011;74907;42.812;23.216;2024-03-02T03:30:49;32.50;;;21.17;;
10731;SDS011;74907;42.812;23.216;2024-03-02T03:33:16;28.20;;;20.53;;
10731;SDS011;74907;42.812;23.216;2024-03-02T03:35:43;30.13;;;20.73;;
10731;SDS011;74907;42.812;23.216;2024-03-02T03:38:09;27.93;;;20.77;;
10731;SDS011;74907;42.812;23.216;2024-03-02T03:40:37;26.67;;;20.80;;
10731;SDS011;74907;42.812;23.216;2024-03-02T03:43:03;32.20;;;20.67;;
10731;SDS011;74907;42.812;23.216;2024-03-02T03:45:30;34.60;;;21.47;;
10731;SDS011;74907;42.812;23.216;2024-03-02T03:47:58;33.50;;;23.47;;
10731;SDS011;74907;42.812;23.216;2024-03-02T03:50:25;30.17;;;21.80;;
10731;SDS011;74907;42.812;23.216;2024-03-02T03:52:51;32.50;;;22.13;;
10731;SDS011;74907;42.812;23.216;2024-03-02T03:55:18;38.37;;;25.13;;
10731;SDS011;74907;42.812;23.216;2024-03-02T03:57:45;33.63;;;21.50;;
10731;SDS011;74907;42.812;23.216;2024-03-02T04:00:12;30.83;;;21.30;;
10731;SDS011;74907;42.812;23.216;2024-03-02T04:02:39;30.33;;;21.57;;
10731;SDS011;74907;42.812;23.216;2024-03-02T04:05:07;34.80;;;22.73;;
10731;SDS011;74907;42.812;23.216;2024-03-02T04:07:35;33.60;;;23.33;;
10731;SDS011;74907;42.812;23.216;2024-03-02T04:10:06;33.67;;;22.37;;
10731;SDS011;74907;42.812;23.216;2024-03-02T04:12:34;33.33;;;22.13;;
10731;SDS011;74907;42.812;23.216;2024-03-02T04:15:02;30.50;;;21.10;;
10731;SDS011;74907;42.812;23.216;2024-03-02T04:17:31;30.50;;;21.23;;
10731;SDS011;74907;42.812;23.216;2024-03-02T04:19:59;31.20;;;21.10;;
10731;SDS011;74907;42.812;23.216;2024-03-02T04:22:27;30.57;;;21.10;;
10731;SDS011;74907;42.812;23.216;2024-03-02T04:24:54;30.40;;;21.60;;
10731;SDS011;74907;42.812;23.216;2024-03-02T04:27:20;31.93;;;22.47;;
10731;SDS011;74907;42.812;23.216;2024-03-02T04:29:46;28.53;;;21.47;;
10731;SDS011;74907;42.812;23.216;2024-03-02T04:32:13;32.77;;;23.87;;
10731;SDS011;74907;42.812;23.216;2024-03-02T04:34:40;35.47;;;24.27;;
10731;SDS011;74907;42.812;23.216;2024-03-02T04:37:07;31.27;;;23.13;;
10731;SDS011;74907;42.812;23.216;2024-03-02T04:39:35;34.97;;;24.03;;
10731;SDS011;74907;42.812;23.216;2024-03-02T04:42:02;33.47;;;23.27;;
10731;SDS011;74907;42.812;23.216;2024-03-02T04:44:29;35.20;;;23.20;;
10731;SDS011;74907;42.812;23.216;2024-03-02T04:46:56;28.30;;;21.30;;
10731;SDS011;74907;42.812;23.216;2024-03-02T04:49:23;31.00;;;22.53;;
10731;SDS011;74907;42.812;23.216;2024-03-02T04:51:49;31.80;;;22.93;;
10731;SDS011;74907;42.812;23.216;2024-03-02T04:54:18;29.67;;;22.10;;
10731;SDS011;74907;42.812;23.216;2024-03-02T04:56:46;32.07;;;23.33;;
10731;SDS011;74907;42.812;23.216;2024-03-02T04:59:15;30.03;;;23.23;;
10731;SDS011;74907;42.812;23.216;2024-03-02T05:01:43;32.53;;;23.57;;
10731;SDS011;74907;42.812;23.216;2024-03-02T05:04:09;32.43;;;22.97;;
10731;SDS011;74907;42.812;23.216;2024-03-02T05:06:37;35.00;;;23.43;;
10731;SDS011;74907;42.812;23.216;2024-03-02T05:09:05;35.43;;;23.80;;
10731;SDS011;74907;42.812;23.216;2024-03-02T05:11:32;32.67;;;22.27;;
10731;SDS011;74907;42.812;23.216;2024-03-02T05:14:14;37.67;;;24.13;;
10731;SDS011;74907;42.812;23.216;2024-03-02T05:16:40;34.27;;;23.07;;
10731;SDS011;74907;42.812;23.216;2024-03-02T05:19:07;37.30;;;24.77;;
10731;SDS011;74907;42.812;23.216;2024-03-02T05:21:34;34.53;;;25.00;;
10731;SDS011;74907;42.812;23.216;2024-03-02T05:24:01;33.53;;;24.93;;
10731;SDS011;74907;42.812;23.216;2024-03-02T05:26:28;36.57;;;24.67;;
10731;SDS011;74907;42.812;23.216;2024-03-02T05:28:55;34.00;;;24.90;;
10731;SDS011;74907;42.812;23.216;2024-03-02T05:31:23;31.47;;;23.00;;
10731;SDS011;74907;42.812;23.216;2024-03-02T05:33:49;34.83;;;24.30;;
10731;SDS011;74907;42.812;23.216;2024-03-02T05:36:17;35.17;;;24.13;;
10731;SDS011;74907;42.812;23.216;2024-03-02T05:38:45;36.07;;;24.83;;
10731;SDS011;74907;42.812;23.216;2024-03-02T05:41:12;38.83;;;25.80;;
10731;SDS011;74907;42.812;23.216;2024-03-02T05:43:39;41.10;;;28.17;;
10731;SDS011;74907;42.812;23.216;2024-03-02T05:46:05;43.53;;;30.30;;
10731;SDS011;74907;42.812;23.216;2024-03-02T05:48:34;45.17;;;30.27;;
10731;SDS011;74907;42.812;23.216;2024-03-02T05:51:00;42.70;;;30.37;;
10731;SDS011;74907;42.812;23.216;2024-03-02T05:53:27;42.53;;;29.87;;
10731;SDS011;74907;42.812;23.216;2024-03-02T05:55:54;42.47;;;28.87;;
10731;SDS011;74907;42.812;23.216;2024-03-02T05:58:21;40.47;;;26.57;;
10731;SDS011;74907;42.812;23.216;2024-03-02T06:00:58;36.80;;;25.90;;
10731;SDS011;74907;42.812;23.216;2024-03-02T06:03:25;39.07;;;25.57;;
10731;SDS011;74907;42.812;23.216;2024-03-02T06:05:54;38.93;;;26.10;;
10731;SDS011;74907;42.812;23.216;2024-03-02T06:08:21;36.33;;;26.43;;
10731;SDS011;74907;42.812;23.216;2024-03-02T06:10:48;39.73;;;25.37;;
10731;SDS011;74907;42.812;23.216;2024-03-02T06:13:14;42.80;;;29.10;;
10731;SDS011;74907;42.812;23.216;2024-03-02T06:15:41;38.80;;;27.33;;
10731;SDS011;74907;42.812;23.216;2024-03-02T06:18:08;37.27;;;25.27;;
10731;SDS011;74907;42.812;23.216;2024-03-02T06:20:35;36.83;;;24.17;;
10731;SDS011;74907;42.812;23.216;2024-03-02T06:23:03;35.17;;;22.87;;
10731;SDS011;74907;42.812;23.216;2024-03-02T06:25:30;34.80;;;23.93;;
10731;SDS011;74907;42.812;23.216;2024-03-02T06:27:57;37.57;;;25.70;;
10731;SDS011;74907;42.812;23.216;2024-03-02T06:30:24;38.80;;;24.40;;
10731;SDS011;74907;42.812;23.216;2024-03-02T06:32:50;37.67;;;24.40;;
10731;SDS011;74907;42.812;23.216;2024-03-02T06:35:17;38.30;;;25.27;;
10731;SDS011;74907;42.812;23.216;2024-03-02T06:37:44;39.47;;;24.97;;
10731;SDS011;74907;42.812;23.216;2024-03-02T06:40:12;38.27;;;25.97;;
10731;SDS011;74907;42.812;23.216;2024-03-02T06:42:38;34.70;;;24.63;;
10731;SDS011;74907;42.812;23.216;2024-03-02T06:45:05;36.00;;;24.87;;
10731;SDS011;74907;42.812;23.216;2024-03-02T06:47:33;68.80;;;44.70;;
10731;SDS011;74907;42.812;23.216;2024-03-02T06:49:59;58.27;;;34.17;;
10731;SDS011;74907;42.812;23.216;2024-03-02T06:52:26;39.37;;;24.93;;
10731;SDS011;74907;42.812;23.216;2024-03-02T06:54:53;33.63;;;23.77;;
10731;SDS011;74907;42.812;23.216;2024-03-02T06:57:21;36.30;;;23.17;;
10731;SDS011;74907;42.812;23.216;2024-03-02T06:59:49;34.00;;;24.73;;
10731;SDS011;74907;42.812;23.216;2024-03-02T07:02:19;31.83;;;22.87;;
10731;SDS011;74907;42.812;23.216;2024-03-02T07:04:45;34.33;;;22.93;;
10731;SDS011;74907;42.812;23.216;2024-03-02T07:07:12;35.63;;;24.90;;
10731;SDS011;74907;42.812;23.216;2024-03-02T07:09:39;38.87;;;23.63;;
10731;SDS011;74907;42.812;23.216;2024-03-02T07:12:05;30.80;;;23.30;;
10731;SDS011;74907;42.812;23.216;2024-03-02T07:14:33;36.30;;;23.27;;
10731;SDS011;74907;42.812;23.216;2024-03-02T07:17:17;31.97;;;22.17;;
10731;SDS011;74907;42.812;23.216;2024-03-02T07:19:44;31.17;;;21.27;;
10731;SDS011;74907;42.812;23.216;2024-03-02T07:22:10;31.50;;;21.43;;
10731;SDS011;74907;42.812;23.216;2024-03-02T07:24:40;33.93;;;21.83;;
10731;SDS011;74907;42.812;23.216;2024-03-02T07:27:08;27.67;;;20.37;;
10731;SDS011;74907;42.812;23.216;2024-03-02T07:29:37;32.30;;;21.63;;
10731;SDS011;74907;42.812;23.216;2024-03-02T07:32:04;27.97;;;20.13;;
10731;SDS011;74907;42.812;23.216;2024-03-02T07:34:31;28.90;;;19.77;;
10731;SDS011;74907;42.812;23.216;2024-03-02T07:36:58;30.83;;;21.07;;
10731;SDS011;74907;42.812;23.216;2024-03-02T07:39:24;27.57;;;19.83;;
10731;SDS011;74907;42.812;23.216;2024-03-02T07:41:51;31.57;;;20.43;;
10731;SDS011;74907;42.812;23.216;2024-03-02T07:44:18;34.40;;;20.50;;
10731;SDS011;74907;42.812;23.216;2024-03-02T07:46:47;27.30;;;20.10;;
10731;SDS011;74907;42.812;23.216;2024-03-02T07:49:14;33.17;;;21.53;;
10731;SDS011;74907;42.812;23.216;2024-03-02T07:51:41;29.93;;;21.40;;
10731;SDS011;74907;42.812;23.216;2024-03-02T07:54:08;30.00;;;20.77;;
10731;SDS011;74907;42.812;23.216;2024-03-02T07:56:35;30.90;;;21.03;;
10731;SDS011;74907;42.812;23.216;2024-03-02T07:59:02;29.47;;;20.13;;
10731;SDS011;74907;42.812;23.216;2024-03-02T08:01:29;27.87;;;18.27;;
10731;SDS011;74907;42.812;23.216;2024-03-02T08:03:58;23.53;;;15.93;;
10731;SDS011;74907;42.812;23.216;2024-03-02T08:06:25;24.17;;;16.70;;
10731;SDS011;74907;42.812;23.216;2024-03-02T08:08:53;22.50;;;16.53;;
10731;SDS011;74907;42.812;23.216;2024-03-02T08:11:20;26.27;;;19.07;;
10731;SDS011;74907;42.812;23.216;2024-03-02T08:13:47;24.20;;;18.07;;
10731;SDS011;74907;42.812;23.216;2024-03-02T08:16:14;26.70;;;17.83;;
10731;SDS011;74907;42.812;23.216;2024-03-02T08:18:43;23.27;;;18.30;;
10731;SDS011;74907;42.812;23.216;2024-03-02T08:21:11;24.00;;;17.07;;
10731;SDS011;74907;42.812;23.216;2024-03-02T08:23:38;24.63;;;17.40;;
10731;SDS011;74907;42.812;23.216;2024-03-02T08:26:07;23.17;;;17.90;;
10731;SDS011;74907;42.812;23.216;2024-03-02T08:28:34;23.00;;;17.27;;
10731;SDS011;74907;42.812;23.216;2024-03-02T08:31:02;26.83;;;17.40;;
10731;SDS011;74907;42.812;23.216;2024-03-02T08:33:29;25.43;;;16.87;;
10731;SDS011;74907;42.812;23.216;2024-03-02T08:35:55;24.27;;;17.70;;
10731;SDS011;74907;42.812;23.216;2024-03-02T08:38:24;24.67;;;18.30;;
10731;SDS011;74907;42.812;23.216;2024-03-02T08:40:51;25.83;;;19.67;;
10731;SDS011;74907;42.812;23.216;2024-03-02T08:43:18;25.97;;;17.63;;
10731;SDS011;74907;42.812;23.216;2024-03-02T08:45:45;26.17;;;19.10;;
10731;SDS011;74907;42.812;23.216;2024-03-02T08:48:12;27.90;;;18.93;;
10731;SDS011;74907;42.812;23.216;2024-03-02T08:50:39;25.77;;;17.73;;
10731;SDS011;74907;42.812;23.216;2024-03-02T08:53:06;25.97;;;19.47;;
10731;SDS011;74907;42.812;23.216;2024-03-02T08:55:34;26.33;;;18.27;;
10731;SDS011;74907;42.812;23.216;2024-03-02T08:58:00;25.20;;;18.53;;
10731;SDS011;74907;42.812;23.216;2024-03-02T09:00:27;28.60;;;19.03;;
10731;SDS011;74907;42.812;23.216;2024-03-02T09:02:54;27.63;;;18.23;;
10731;SDS011;74907;42.812;23.216;2024-03-02T09:05:21;26.87;;;19.03;;
10731;SDS011;74907;42.812;23.216;2024-03-02T09:07:47;24.33;;;19.13;;
10731;SDS011;74907;42.812;23.216;2024-03-02T09:10:14;26.10;;;19.27;;
10731;SDS011;74907;42.812;23.216;2024-03-02T09:12:43;30.13;;;20.73;;
10731;SDS011;74907;42.812;23.216;2024-03-02T09:15:10;30.67;;;21.83;;
10731;SDS011;74907;42.812;23.216;2024-03-02T09:17:37;29.30;;;20.30;;
10731;SDS011;74907;42.812;23.216;2024-03-02T09:20:05;24.10;;;17.80;;
10731;SDS011;74907;42.812;23.216;2024-03-02T09:22:33;25.17;;;17.80;;
10731;SDS011;74907;42.812;23.216;2024-03-02T09:24:59;24.07;;;19.23;;
10731;SDS011;74907;42.812;23.216;2024-03-02T09:27:26;25.20;;;18.37;;
10731;SDS011;74907;42.812;23.216;2024-03-02T09:29:54;26.50;;;20.57;;
10731;SDS011;74907;42.812;23.216;2024-03-02T09:32:21;26.33;;;18.43;;
10731;SDS011;74907;42.812;23.216;2024-03-02T09:34:48;24.87;;;19.40;;
10731;SDS011;74907;42.812;23.216;2024-03-02T09:37:15;25.73;;;18.30;;
10731;SDS011;74907;42.812;23.216;2024-03-02T09:39:43;24.30;;;17.63;;
10731;SDS011;74907;42.812;23.216;2024-03-02T09:42:10;23.20;;;17.20;;
10731;SDS011;74907;42.812;23.216;2024-03-02T09:44:38;21.23;;;17.17;;
10731;SDS011;74907;42.812;23.216;2024-03-02T09:47:08;27.20;;;18.33;;
10731;SDS011;74907;42.812;23.216;2024-03-02T09:49:34;25.40;;;17.43;;
10731;SDS011;74907;42.812;23.216;2024-03-02T09:52:01;22.03;;;18.33;;
10731;SDS011;74907;42.812;23.216;2024-03-02T09:54:31;23.17;;;16.40;;
10731;SDS011;74907;42.812;23.216;2024-03-02T09:56:57;24.80;;;17.33;;
10731;SDS011;74907;42.812;23.216;2024-03-02T09:59:26;26.03;;;17.90;;
10731;SDS011;74907;42.812;23.216;2024-03-02T10:01:57;25.90;;;19.10;;
10731;SDS011;74907;42.812;23.216;2024-03-02T10:04:27;28.77;;;20.93;;
10731;SDS011;74907;42.812;23.216;2024-03-02T10:07:09;27.67;;;21.20;;
10731;SDS011;74907;42.812;23.216;2024-03-02T10:09:37;28.73;;;21.17;;
10731;SDS011;74907;42.812;23.216;2024-03-02T10:12:04;26.90;;;20.27;;
10731;SDS011;74907;42.812;23.216;2024-03-02T10:14:32;27.47;;;20.30;;
10731;SDS011;74907;42.812;23.216;2024-03-02T10:17:02;24.37;;;19.20;;
10731;SDS011;74907;42.812;23.216;2024-03-02T10:19:31;26.57;;;18.60;;
10731;SDS011;74907;42.812;23.216;2024-03-02T10:22:00;28.80;;;20.27;;
10731;SDS011;74907;42.812;23.216;2024-03-02T10:24:28;23.50;;;18.77;;
10731;SDS011;74907;42.812;23.216;2024-03-02T10:27:03;24.67;;;17.67;;
10731;SDS011;74907;42.812;23.216;2024-03-02T10:29:36;25.13;;;18.53;;
10731;SDS011;74907;42.812;23.216;2024-03-02T10:32:04;24.10;;;17.63;;
10731;SDS011;74907;42.812;23.216;2024-03-02T10:34:33;26.33;;;18.40;;
10731;SDS011;74907;42.812;23.216;2024-03-02T10:36:59;23.07;;;17.90;;
10731;SDS011;74907;42.812;23.216;2024-03-02T10:39:27;21.60;;;17.43;;
10731;SDS011;74907;42.812;23.216;2024-03-02T10:41:54;26.00;;;18.70;;
10731;SDS011;74907;42.812;23.216;2024-03-02T10:44:22;26.57;;;18.23;;
10731;SDS011;74907;42.812;23.216;2024-03-02T10:46:50;25.37;;;17.77;;
10731;SDS011;74907;42.812;23.216;2024-03-02T10:49:19;26.90;;;18.20;;
10731;SDS011;74907;42.812;23.216;2024-03-02T10:51:50;22.07;;;17.30;;
10731;SDS011;74907;42.812;23.216;2024-03-02T10:54:17;23.03;;;17.93;;
10731;SDS011;74907;42.812;23.216;2024-03-02T10:56:51;21.47;;;17.27;;
10731;SDS011;74907;42.812;23.216;2024-03-02T10:59:21;26.27;;;17.87;;
10731;SDS011;74907;42.812;23.216;2024-03-02T11:01:53;27.00;;;19.43;;
10731;SDS011;74907;42.812;23.216;2024-03-02T11:04:24;23.27;;;18.20;;
10731;SDS011;74907;42.812;23.216;2024-03-02T11:06:55;25.13;;;18.37;;
10731;SDS011;74907;42.812;23.216;2024-03-02T11:09:26;22.47;;;17.73;;
10731;SDS011;74907;42.812;23.216;2024-03-02T11:11:56;25.47;;;17.83;;
10731;SDS011;74907;42.812;23.216;2024-03-02T11:14:29;25.27;;;19.03;;
10731;SDS011;74907;42.812;23.216;2024-03-02T11:16:57;25.00;;;19.63;;
10731;SDS011;74907;42.812;23.216;2024-03-02T11:19:25;23.70;;;17.40;;
10731;SDS011;74907;42.812;23.216;2024-03-02T11:21:54;22.07;;;17.17;;
10731;SDS011;74907;42.812;23.216;2024-03-02T11:27:14;27.17;;;20.23;;
10731;SDS011;74907;42.812;23.216;2024-03-02T11:29:44;23.27;;;18.53;;
10731;SDS011;74907;42.812;23.216;2024-03-02T11:32:20;25.43;;;18.77;;
10731;SDS011;74907;42.812;23.216;2024-03-02T11:34:49;21.37;;;16.77;;
10731;SDS011;74907;42.812;23.216;2024-03-02T11:37:18;25.73;;;19.07;;
10731;SDS011;74907;42.812;23.216;2024-03-02T11:39:46;23.53;;;18.43;;
10731;SDS011;74907;42.812;23.216;2024-03-02T11:42:15;20.07;;;17.03;;
10731;SDS011;74907;42.812;23.216;2024-03-02T11:44:43;21.30;;;18.13;;
10731;SDS011;74907;42.812;23.216;2024-03-02T11:47:11;23.73;;;17.83;;
10731;SDS011;74907;42.812;23.216;2024-03-02T11:49:43;21.30;;;17.47;;
10731;SDS011;74907;42.812;23.216;2024-03-02T11:52:11;25.63;;;21.00;;
10731;SDS011;74907;42.812;23.216;2024-03-02T11:54:41;24.07;;;18.30;;
10731;SDS011;74907;42.812;23.216;2024-03-02T11:57:12;25.63;;;19.80;;
10731;SDS011;74907;42.812;23.216;2024-03-02T11:59:40;26.57;;;18.33;;
10731;SDS011;74907;42.812;23.216;2024-03-02T12:02:07;38.57;;;26.90;;
10731;SDS011;74907;42.812;23.216;2024-03-02T12:04:41;23.87;;;18.20;;
10731;SDS011;74907;42.812;23.216;2024-03-02T12:07:08;22.67;;;19.03;;
10731;SDS011;74907;42.812;23.216;2024-03-02T12:09:35;24.40;;;20.30;;
10731;SDS011;74907;42.812;23.216;2024-03-02T12:12:04;23.67;;;17.97;;
10731;SDS011;74907;42.812;23.216;2024-03-02T12:14:32;26.57;;;19.87;;
10731;SDS011;74907;42.812;23.216;2024-03-02T12:16:59;26.83;;;20.80;;
10731;SDS011;74907;42.812;23.216;2024-03-02T12:19:26;21.90;;;18.30;;
10731;SDS011;74907;42.812;23.216;2024-03-02T12:21:55;21.33;;;18.27;;
10731;SDS011;74907;42.812;23.216;2024-03-02T12:24:22;25.67;;;20.10;;
10731;SDS011;74907;42.812;23.216;2024-03-02T12:26:50;22.30;;;19.43;;
10731;SDS011;74907;42.812;23.216;2024-03-02T12:29:19;22.17;;;17.30;;
10731;SDS011;74907;42.812;23.216;2024-03-02T12:31:47;21.33;;;17.27;;
10731;SDS011;74907;42.812;23.216;2024-03-02T12:34:15;20.17;;;16.33;;
10731;SDS011;74907;42.812;23.216;2024-03-02T12:36:43;20.53;;;16.83;;
10731;SDS011;74907;42.812;23.216;2024-03-02T12:39:12;21.83;;;17.73;;
10731;SDS011;74907;42.812;23.216;2024-03-02T12:41:40;20.07;;;17.47;;
10731;SDS011;74907;42.812;23.216;2024-03-02T12:44:07;19.93;;;17.13;;
10731;SDS011;74907;42.812;23.216;2024-03-02T12:46:35;20.03;;;16.37;;
10731;SDS011;74907;42.812;23.216;2024-03-02T12:49:05;19.60;;;16.07;;
10731;SDS011;74907;42.812;23.216;2024-03-02T12:51:35;17.53;;;15.47;;
10731;SDS011;74907;42.812;23.216;2024-03-02T12:54:02;15.90;;;14.30;;
10731;SDS011;74907;42.812;23.216;2024-03-02T12:56:30;14.00;;;12.57;;
10731;SDS011;74907;42.812;23.216;2024-03-02T12:58:57;16.30;;;13.87;;
10731;SDS011;74907;42.812;23.216;2024-03-02T13:01:24;22.67;;;16.77;;
10731;SDS011;74907;42.812;23.216;2024-03-02T13:03:53;15.30;;;13.70;;
10731;SDS011;74907;42.812;23.216;2024-03-02T13:06:22;18.30;;;14.90;;
10731;SDS011;74907;42.812;23.216;2024-03-02T13:08:52;24.53;;;19.40;;
10731;SDS011;74907;42.812;23.216;2024-03-02T13:11:20;16.87;;;14.23;;
10731;SDS011;74907;42.812;23.216;2024-03-02T13:13:47;16.57;;;13.37;;
10731;SDS011;74907;42.812;23.216;2024-03-02T13:16:14;16.50;;;13.77;;
10731;SDS011;74907;42.812;23.216;2024-03-02T13:18:41;15.00;;;13.40;;
10731;SDS011;74907;42.812;23.216;2024-03-02T13:21:09;15.20;;;12.97;;
10731;SDS011;74907;42.812;23.216;2024-03-02T13:23:36;15.23;;;13.40;;
10731;SDS011;74907;42.812;23.216;2024-03-02T13:26:03;15.43;;;13.17;;
10731;SDS011;74907;42.812;23.216;2024-03-02T13:28:30;16.27;;;14.43;;
10731;SDS011;74907;42.812;23.216;2024-03-02T13:30:57;62.40;;;38.57;;
10731;SDS011;74907;42.812;23.216;2024-03-02T13:33:23;18.20;;;15.67;;
10731;SDS011;74907;42.812;23.216;2024-03-02T13:35:50;14.20;;;12.73;;
10731;SDS011;74907;42.812;23.216;2024-03-02T13:38:19;15.23;;;13.13;;
10731;SDS011;74907;42.812;23.216;2024-03-02T13:40:46;18.90;;;15.23;;
10731;SDS011;74907;42.812;23.216;2024-03-02T13:43:16;15.53;;;13.17;;
10731;SDS011;74907;42.812;23.216;2024-03-02T13:45:43;16.07;;;13.57;;
10731;SDS011;74907;42.812;23.216;2024-03-02T13:48:10;21.20;;;16.90;;
10731;SDS011;74907;42.812;23.216;2024-03-02T13:50:36;14.60;;;12.77;;
10731;SDS011;74907;42.812;23.216;2024-03-02T13:53:03;13.40;;;12.00;;
10731;SDS011;74907;42.812;23.216;2024-03-02T13:55:32;18.10;;;13.93;;
10731;SDS011;74907;42.812;23.216;2024-03-02T13:57:59;14.93;;;13.30;;
10731;SDS011;74907;42.812;23.216;2024-03-02T14:00:26;22.97;;;19.70;;
10731;SDS011;74907;42.812;23.216;2024-03-02T14:02:54;15.23;;;13.40;;
10731;SDS011;74907;42.812;23.216;2024-03-02T14:05:20;17.00;;;15.20;;
10731;SDS011;74907;42.812;23.216;2024-03-02T14:07:47;14.27;;;12.50;;
10731;SDS011;74907;42.812;23.216;2024-03-02T14:10:14;12.67;;;11.37;;
10731;SDS011;74907;42.812;23.216;2024-03-02T14:12:42;14.03;;;11.63;;
10731;SDS011;74907;42.812;23.216;2024-03-02T14:15:09;13.00;;;11.67;;
10731;SDS011;74907;42.812;23.216;2024-03-02T14:17:36;14.33;;;12.83;;
10731;SDS011;74907;42.812;23.216;2024-03-02T14:20:02;13.70;;;12.30;;